createdAt,value
2023-08-31T00:01:25.616Z,21.20
2023-08-31T00:11:27.058Z,21.20
2023-08-31T00:21:28.514Z,21.10
2023-08-31T00:31:29.933Z,21.10
2023-08-31T00:41:31.373Z,21.10
2023-08-31T00:51:32.802Z,21.00
2023-08-31T01:01:34.299Z,20.90
2023-08-31T01:11:35.789Z,20.80
2023-08-31T01:21:37.222Z,20.70
2023-08-31T01:31:38.692Z,20.90
2023-08-31T01:41:40.185Z,21.20
2023-08-31T01:51:41.706Z,21.00
2023-08-31T02:01:43.166Z,20.90
2023-08-31T02:11:46.007Z,20.90
2023-08-31T02:21:47.717Z,20.80
2023-08-31T02:31:49.161Z,20.70
2023-08-31T02:41:50.609Z,20.60
2023-08-31T02:51:52.026Z,20.60
2023-08-31T03:01:53.508Z,20.50
2023-08-31T03:11:54.969Z,20.40
2023-08-31T03:21:56.406Z,20.40
2023-08-31T03:31:57.864Z,20.50
2023-08-31T03:41:59.307Z,20.40
2023-08-31T03:52:00.763Z,20.50
2023-08-31T04:02:02.199Z,20.30
2023-08-31T04:12:03.665Z,20.30
2023-08-31T04:22:05.124Z,20.30
2023-08-31T04:32:06.560Z,20.20
2023-08-31T04:42:08.012Z,20.00
2023-08-31T04:52:09.447Z,20.00
2023-08-31T05:02:10.872Z,19.90
2023-08-31T05:12:12.799Z,19.90
2023-08-31T05:22:14.320Z,19.80
2023-08-31T05:32:15.757Z,19.80
2023-08-31T05:42:17.228Z,19.90
2023-08-31T05:52:18.719Z,19.80
2023-08-31T06:02:20.148Z,19.90
2023-08-31T06:12:21.593Z,20.10
2023-08-31T06:22:23.034Z,22.00
2023-08-31T06:32:24.494Z,23.90
2023-08-31T06:42:26.634Z,24.60
2023-08-31T06:52:31.855Z,24.90
2023-08-31T07:02:34.302Z,25.10
2023-08-31T07:12:35.824Z,25.30
2023-08-31T07:22:37.304Z,25.50
2023-08-31T07:32:38.752Z,26.00
2023-08-31T07:42:40.233Z,26.20
2023-08-31T07:52:41.681Z,26.50
2023-08-31T08:02:43.181Z,26.70
2023-08-31T08:12:44.751Z,26.80
2023-08-31T08:22:46.240Z,26.70
2023-08-31T08:32:48.834Z,26.70
2023-08-31T08:42:50.295Z,26.70
2023-08-31T08:52:51.744Z,26.90
2023-08-31T09:02:53.274Z,26.90
2023-08-31T09:12:54.749Z,26.90
2023-08-31T09:22:56.194Z,27.00
2023-08-31T09:32:57.707Z,27.00
2023-08-31T09:42:59.138Z,27.10
2023-08-31T09:53:00.568Z,27.20
2023-08-31T10:03:02.042Z,27.20
2023-08-31T10:13:03.535Z,27.30
2023-08-31T10:23:04.992Z,27.30
2023-08-31T10:33:06.427Z,27.40
2023-08-31T10:43:07.873Z,27.40
2023-08-31T10:53:09.457Z,27.50
2023-08-31T11:03:11.386Z,27.60
2023-08-31T11:13:13.264Z,27.70
2023-08-31T11:23:15.054Z,27.70
2023-08-31T11:33:17.028Z,27.90
2023-08-31T11:43:18.802Z,28.00
2023-08-31T11:53:20.284Z,28.00
2023-08-31T12:03:23.721Z,28.10
2023-08-31T12:13:28.866Z,28.20
2023-08-31T12:23:30.584Z,28.20
2023-08-31T12:33:32.041Z,28.20
2023-08-31T12:43:33.530Z,28.30
2023-08-31T12:53:35.016Z,28.30
2023-08-31T13:03:36.498Z,28.40
2023-08-31T13:13:37.979Z,28.40
2023-08-31T13:23:39.549Z,28.50
2023-08-31T13:33:40.991Z,28.30
2023-08-31T13:43:42.428Z,23.60
2023-08-31T14:04:02.182Z,27.20
2023-08-31T14:14:03.968Z,27.70
2023-08-31T14:24:05.725Z,28.00
2023-08-31T14:34:07.270Z,28.10
2023-08-31T14:54:31.144Z,28.20
2023-08-31T15:04:32.863Z,28.20
2023-08-31T15:14:34.606Z,28.30
2023-08-31T15:24:36.406Z,28.20
2023-08-31T15:34:37.836Z,28.10
2023-08-31T15:44:39.752Z,28.20
2023-08-31T15:54:41.215Z,28.10
2023-08-31T16:04:42.649Z,28.20
2023-08-31T16:14:44.095Z,28.20
2023-08-31T16:24:46.967Z,28.20
2023-08-31T16:34:48.697Z,28.30
2023-08-31T16:44:52.594Z,28.30
2023-08-31T16:54:54.218Z,28.40
2023-08-31T17:04:55.762Z,28.40
2023-08-31T17:14:57.353Z,28.50
2023-08-31T17:24:59.693Z,28.50
2023-08-31T17:35:01.204Z,28.50
2023-08-31T17:45:04.827Z,28.50
2023-08-31T17:55:15.263Z,28.50
2023-08-31T18:05:17.998Z,28.10
2023-08-31T18:15:19.784Z,27.50
2023-08-31T18:25:21.225Z,26.00
2023-08-31T18:35:22.670Z,25.20
2023-08-31T18:45:27.131Z,24.70
2023-08-31T18:55:31.276Z,24.30
2023-08-31T19:05:33.711Z,24.00
2023-08-31T19:15:35.228Z,23.70
2023-08-31T19:25:37.161Z,23.50
2023-08-31T19:35:58.503Z,23.30
2023-08-31T19:46:01.013Z,23.20
2023-08-31T19:56:02.583Z,22.90
2023-08-31T20:06:11.465Z,22.80
2023-08-31T20:16:13.664Z,22.60
2023-08-31T20:26:15.136Z,22.40
2023-08-31T20:36:16.578Z,22.20
2023-08-31T20:46:18.043Z,22.10
2023-08-31T20:56:19.531Z,21.90
2023-08-31T21:06:20.962Z,21.80
2023-08-31T21:16:22.513Z,21.70
2023-08-31T21:26:23.943Z,21.50
2023-08-31T21:36:25.389Z,21.40
2023-08-31T21:46:26.851Z,21.30
2023-08-31T21:56:28.314Z,21.20
2023-08-31T22:06:29.766Z,21.10
2023-08-31T22:16:31.248Z,21.00
2023-08-31T22:26:32.789Z,21.00
2023-08-31T22:36:34.250Z,20.90
2023-08-31T22:46:35.667Z,20.80
2023-08-31T22:56:37.119Z,20.80
2023-08-31T23:06:38.570Z,20.70
2023-08-31T23:16:40.018Z,20.70
2023-08-31T23:26:41.466Z,20.60
2023-08-31T23:36:43.002Z,20.50
2023-08-31T23:46:44.448Z,20.40
2023-08-31T23:56:45.990Z,20.30
